createdAt,value
2023-04-04T00:00:20.807Z,27.97
2023-04-04T00:00:52.361Z,27.97
2023-04-04T00:01:23.874Z,27.83
2023-04-04T00:01:55.400Z,27.83
2023-04-04T00:02:26.896Z,27.96
2023-04-04T00:02:58.465Z,28.02
2023-04-04T00:03:30.136Z,27.83
2023-04-04T00:04:03.590Z,27.89
2023-04-04T00:04:35.119Z,27.92
2023-04-04T00:05:09.250Z,27.91
2023-04-04T00:05:40.667Z,27.92
2023-04-04T00:06:12.167Z,28.00
2023-04-04T00:06:43.617Z,27.93
2023-04-04T00:07:15.130Z,28.05
2023-04-04T00:07:46.578Z,27.86
2023-04-04T00:08:18.126Z,27.86
2023-04-04T00:08:49.729Z,27.89
2023-04-04T00:09:21.218Z,27.95
2023-04-04T00:09:52.656Z,27.88
2023-04-04T00:10:24.142Z,28.06
2023-04-04T00:10:55.651Z,28.05
2023-04-04T00:11:27.136Z,28.00
2023-04-04T00:11:58.528Z,27.77
2023-04-04T00:12:32.500Z,27.90
2023-04-04T00:13:03.963Z,27.87
2023-04-04T00:13:35.472Z,27.77
2023-04-04T00:14:09.614Z,27.94
2023-04-04T00:14:41.020Z,27.98
2023-04-04T00:15:14.063Z,28.00
2023-04-04T00:15:45.536Z,28.00
2023-04-04T00:16:16.991Z,27.90
2023-04-04T00:16:48.519Z,28.04
2023-04-04T00:17:19.921Z,27.89
2023-04-04T00:17:51.491Z,27.93
2023-04-04T00:18:22.942Z,27.90
2023-04-04T00:18:54.410Z,27.86
2023-04-04T00:19:26.000Z,27.88
2023-04-04T00:19:57.440Z,27.88
2023-04-04T00:20:31.568Z,27.98
2023-04-04T00:21:02.992Z,28.00
2023-04-04T00:21:34.368Z,28.00
2023-04-04T00:22:14.892Z,27.89
2023-04-04T00:22:46.300Z,27.81
2023-04-04T00:23:17.904Z,27.98
2023-04-04T00:23:49.348Z,28.02
2023-04-04T00:24:20.850Z,27.94
2023-04-04T00:24:52.284Z,27.98
2023-04-04T00:25:23.768Z,27.82
2023-04-04T00:25:55.313Z,27.91
2023-04-04T00:26:26.786Z,27.99
2023-04-04T00:26:58.251Z,27.82
2023-04-04T00:27:29.677Z,28.00
2023-04-04T00:28:01.303Z,28.01
2023-04-04T00:28:32.818Z,27.95
2023-04-04T00:29:04.240Z,27.96
2023-04-04T00:29:35.769Z,27.95
2023-04-04T00:30:07.209Z,27.87
2023-04-04T00:30:38.798Z,27.86
2023-04-04T00:31:10.373Z,28.00
2023-04-04T00:31:41.903Z,28.05
2023-04-04T00:32:13.493Z,27.89
2023-04-04T00:32:45.124Z,27.97
2023-04-04T00:33:16.651Z,27.85
2023-04-04T00:33:48.178Z,27.93
2023-04-04T00:34:19.629Z,27.83
2023-04-04T00:34:51.029Z,27.94
2023-04-04T00:35:25.142Z,27.85
2023-04-04T00:35:56.640Z,27.68
2023-04-04T00:36:28.051Z,27.88
2023-04-04T00:36:59.506Z,28.02
2023-04-04T00:37:31.036Z,27.88
2023-04-04T00:38:02.499Z,27.89
2023-04-04T00:38:33.953Z,27.96
2023-04-04T00:39:05.469Z,27.96
2023-04-04T00:39:36.935Z,27.87
2023-04-04T00:40:08.369Z,27.88
2023-04-04T00:40:39.889Z,27.93
2023-04-04T00:41:11.437Z,27.97
2023-04-04T00:41:42.858Z,27.92
2023-04-04T00:42:14.360Z,28.04
2023-04-04T00:42:45.882Z,27.97
2023-04-04T00:43:17.337Z,27.93
2023-04-04T00:43:48.817Z,27.92
2023-04-04T00:44:20.258Z,27.99
2023-04-04T00:44:51.685Z,27.96
2023-04-04T00:45:23.229Z,27.88
2023-04-04T00:45:54.962Z,28.03
2023-04-04T00:46:26.423Z,27.94
2023-04-04T00:46:57.808Z,27.77
2023-04-04T00:47:29.314Z,28.03
2023-04-04T00:48:00.843Z,27.94
2023-04-04T00:48:32.322Z,27.98
2023-04-04T00:49:03.785Z,28.14
2023-04-04T00:49:35.297Z,28.07
2023-04-04T00:50:06.744Z,28.00
2023-04-04T00:50:38.571Z,27.89
2023-04-04T00:51:10.193Z,27.95
2023-04-04T00:51:41.657Z,27.96
2023-04-04T00:52:13.158Z,27.96
2023-04-04T00:52:44.685Z,27.90
2023-04-04T00:53:16.274Z,28.01
2023-04-04T00:53:47.727Z,27.94
2023-04-04T00:54:19.242Z,27.90
2023-04-04T00:54:50.704Z,27.93
2023-04-04T00:55:22.183Z,27.98
2023-04-04T00:55:53.685Z,27.92
2023-04-04T00:56:25.086Z,28.03
2023-04-04T00:56:56.609Z,27.89
2023-04-04T00:57:28.215Z,27.95
2023-04-04T00:57:59.744Z,27.88
2023-04-04T00:58:31.233Z,27.97
2023-04-04T00:59:02.776Z,27.83
2023-04-04T00:59:34.287Z,27.93
2023-04-04T01:00:05.785Z,28.03
2023-04-04T01:00:37.345Z,28.05
2023-04-04T01:01:09.101Z,27.82
2023-04-04T01:01:40.557Z,27.74
2023-04-04T01:02:12.108Z,27.79
2023-04-04T01:02:43.604Z,27.87
2023-04-04T01:03:15.089Z,27.96
2023-04-04T01:03:46.565Z,27.79
2023-04-04T01:04:18.169Z,27.95
2023-04-04T01:04:49.649Z,27.86
2023-04-04T01:05:21.186Z,28.13
2023-04-04T01:05:52.631Z,27.94
2023-04-04T01:06:24.158Z,27.78
2023-04-04T01:06:55.596Z,27.97
2023-04-04T01:07:27.118Z,27.91
2023-04-04T01:07:58.690Z,27.98
2023-04-04T01:08:30.172Z,27.85
2023-04-04T01:09:01.577Z,28.03
2023-04-04T01:09:32.993Z,27.90
2023-04-04T01:10:06.699Z,27.96
2023-04-04T01:10:38.214Z,27.88
2023-04-04T01:11:09.727Z,27.77
2023-04-04T01:11:41.176Z,27.88
2023-04-04T01:12:12.609Z,27.90
2023-04-04T01:12:46.581Z,27.90
2023-04-04T01:13:18.025Z,27.75
2023-04-04T01:13:49.514Z,27.81
2023-04-04T01:14:20.958Z,27.82
2023-04-04T01:14:55.145Z,27.98
2023-04-04T01:15:26.568Z,27.78
2023-04-04T01:15:58.142Z,27.83
2023-04-04T01:16:29.708Z,27.88
2023-04-04T01:17:01.336Z,27.82
2023-04-04T01:17:32.853Z,27.98
2023-04-04T01:18:04.413Z,27.79
2023-04-04T01:18:35.885Z,27.95
2023-04-04T01:19:07.393Z,27.78
2023-04-04T01:19:38.890Z,27.73
2023-04-04T01:20:10.332Z,27.74
2023-04-04T01:20:41.821Z,28.01
2023-04-04T01:21:13.224Z,28.01
2023-04-04T01:21:44.658Z,27.79
2023-04-04T01:22:16.134Z,27.87
2023-04-04T01:22:47.562Z,27.82
2023-04-04T01:23:19.092Z,27.79
2023-04-04T01:23:53.245Z,27.91
2023-04-04T01:24:26.459Z,28.00
2023-04-04T01:24:57.898Z,27.75
2023-04-04T01:25:32.387Z,27.87
2023-04-04T01:26:03.919Z,27.84
2023-04-04T01:26:35.415Z,27.99
2023-04-04T01:27:06.877Z,27.88
2023-04-04T01:27:38.312Z,27.86
2023-04-04T01:28:09.803Z,27.83
2023-04-04T01:28:41.354Z,27.95
2023-04-04T01:29:12.793Z,27.85
2023-04-04T01:29:44.289Z,27.81
2023-04-04T01:30:15.784Z,27.89
2023-04-04T01:30:47.338Z,28.00
2023-04-04T01:31:18.778Z,27.90
2023-04-04T01:31:50.295Z,27.89
2023-04-04T01:32:21.803Z,27.97
2023-04-04T01:32:53.299Z,27.91
2023-04-04T01:33:26.887Z,27.91
2023-04-04T01:33:58.412Z,27.72
2023-04-04T01:34:29.874Z,28.02
2023-04-04T01:35:01.327Z,27.89
2023-04-04T01:35:32.913Z,27.84
2023-04-04T01:36:04.449Z,27.95
2023-04-04T01:36:38.973Z,27.88
2023-04-04T01:37:10.419Z,27.77
2023-04-04T01:37:41.857Z,27.98
2023-04-04T01:38:13.336Z,27.90
2023-04-04T01:38:44.765Z,27.82
2023-04-04T01:39:16.230Z,27.75
2023-04-04T01:39:47.704Z,27.74
2023-04-04T01:40:19.141Z,27.87
2023-04-04T01:40:50.559Z,27.92
2023-04-04T01:41:22.007Z,27.87
2023-04-04T01:41:56.353Z,27.92
2023-04-04T01:42:27.887Z,28.02
2023-04-04T01:42:59.480Z,27.86
2023-04-04T01:43:31.002Z,27.73
2023-04-04T01:44:02.447Z,27.67
2023-04-04T01:44:33.977Z,27.90
2023-04-04T01:45:05.373Z,27.88
2023-04-04T01:45:36.769Z,27.89
2023-04-04T01:46:08.289Z,27.92
2023-04-04T01:46:39.747Z,27.78
2023-04-04T01:47:11.228Z,27.89
2023-04-04T01:47:42.684Z,27.86
2023-04-04T01:48:14.250Z,27.88
2023-04-04T01:48:45.693Z,27.82
2023-04-04T01:49:17.164Z,27.83
2023-04-04T01:49:51.632Z,27.74
2023-04-04T01:50:23.145Z,27.89
2023-04-04T01:50:54.741Z,27.98
2023-04-04T01:51:26.207Z,27.80
2023-04-04T01:51:57.628Z,27.75
2023-04-04T01:52:29.058Z,27.88
2023-04-04T01:53:00.562Z,27.88
2023-04-04T01:53:32.039Z,27.83
2023-04-04T01:54:03.494Z,27.91
2023-04-04T01:54:34.936Z,27.87
2023-04-04T01:55:06.415Z,27.94
2023-04-04T01:55:37.935Z,27.95
2023-04-04T01:56:09.365Z,27.91
2023-04-04T01:56:40.850Z,28.03
2023-04-04T01:57:12.318Z,27.93
2023-04-04T01:57:43.808Z,27.88
2023-04-04T01:58:15.265Z,27.82
2023-04-04T01:58:46.762Z,27.87
2023-04-04T01:59:18.291Z,27.90
2023-04-04T01:59:49.810Z,27.90
2023-04-04T02:00:21.333Z,27.92
2023-04-04T02:00:52.727Z,27.82
2023-04-04T02:01:24.288Z,28.09
2023-04-04T02:01:55.913Z,27.90
2023-04-04T02:02:27.409Z,27.97
2023-04-04T02:02:59.055Z,27.85
2023-04-04T02:03:30.511Z,27.77
2023-04-04T02:04:02.076Z,27.96
2023-04-04T02:04:33.599Z,27.82
2023-04-04T02:05:05.089Z,27.90
2023-04-04T02:05:36.536Z,27.88
2023-04-04T02:06:08.027Z,27.93
2023-04-04T02:06:39.567Z,27.82
2023-04-04T02:07:13.837Z,27.92
2023-04-04T02:07:48.184Z,27.83
2023-04-04T02:08:19.701Z,27.85
2023-04-04T02:08:51.160Z,27.86
2023-04-04T02:09:22.573Z,27.87
2023-04-04T02:09:56.831Z,27.90
2023-04-04T02:10:28.298Z,27.95
2023-04-04T02:11:02.268Z,27.94
2023-04-04T02:11:33.830Z,27.82
2023-04-04T02:12:05.278Z,27.89
2023-04-04T02:12:38.350Z,27.73
2023-04-04T02:13:09.956Z,27.79
2023-04-04T02:13:41.418Z,27.90
2023-04-04T02:14:12.918Z,27.95
2023-04-04T02:14:44.411Z,28.01
2023-04-04T02:15:15.892Z,27.87
2023-04-04T02:15:47.328Z,27.80
2023-04-04T02:16:18.961Z,27.86
2023-04-04T02:16:50.555Z,27.85
2023-04-04T02:17:22.090Z,27.69
2023-04-04T02:17:53.571Z,27.92
2023-04-04T02:18:25.170Z,27.99
2023-04-04T02:18:59.317Z,27.96
2023-04-04T02:19:30.837Z,27.91
2023-04-04T02:20:05.373Z,27.81
2023-04-04T02:20:36.851Z,27.75
2023-04-04T02:21:08.282Z,27.87
2023-04-04T02:21:39.724Z,27.85
2023-04-04T02:22:11.194Z,27.82
2023-04-04T02:22:42.722Z,27.92
2023-04-04T02:23:14.222Z,27.81
2023-04-04T02:23:45.679Z,27.79
2023-04-04T02:24:17.154Z,27.85
2023-04-04T02:24:51.449Z,27.84
2023-04-04T02:25:22.975Z,27.73
2023-04-04T02:25:54.476Z,27.83
2023-04-04T02:26:26.030Z,27.85
2023-04-04T02:26:57.525Z,27.88
2023-04-04T02:27:29.021Z,27.81
2023-04-04T02:28:00.515Z,27.90
2023-04-04T02:28:32.657Z,27.91
2023-04-04T02:29:04.112Z,27.87
2023-04-04T02:29:35.600Z,27.83
2023-04-04T02:30:07.034Z,27.98
2023-04-04T02:30:38.724Z,27.83
2023-04-04T02:31:10.345Z,27.73
2023-04-04T02:31:41.848Z,27.87
2023-04-04T02:32:13.316Z,27.97
2023-04-04T02:32:44.841Z,27.74
2023-04-04T02:33:16.403Z,27.82
2023-04-04T02:33:47.900Z,27.93
2023-04-04T02:34:22.073Z,27.82
2023-04-04T02:34:53.490Z,27.85
2023-04-04T02:35:24.995Z,27.81
2023-04-04T02:35:56.415Z,27.88
2023-04-04T02:36:27.927Z,27.77
2023-04-04T02:36:59.359Z,27.84
2023-04-04T02:37:30.868Z,27.80
2023-04-04T02:38:02.319Z,27.98
2023-04-04T02:38:34.022Z,27.75
2023-04-04T02:39:05.505Z,27.70
2023-04-04T02:39:36.904Z,27.74
2023-04-04T02:40:08.370Z,27.75
2023-04-04T02:40:40.201Z,27.81
2023-04-04T02:41:11.844Z,27.75
2023-04-04T02:41:43.333Z,27.85
2023-04-04T02:42:14.759Z,27.68
2023-04-04T02:42:46.176Z,27.89
2023-04-04T02:43:17.732Z,27.86
2023-04-04T02:43:49.220Z,27.92
2023-04-04T02:44:20.663Z,28.01
2023-04-04T02:44:52.082Z,27.92
2023-04-04T02:45:23.678Z,27.68
2023-04-04T02:45:55.162Z,27.74
2023-04-04T02:46:26.723Z,27.77
2023-04-04T02:46:58.215Z,27.83
2023-04-04T02:47:29.866Z,27.84
2023-04-04T02:48:01.336Z,27.90
2023-04-04T02:48:32.940Z,27.71
2023-04-04T02:49:04.411Z,27.97
2023-04-04T02:49:35.910Z,27.91
2023-04-04T02:50:07.366Z,27.89
2023-04-04T02:50:39.468Z,27.64
2023-04-04T02:51:11.149Z,27.77
2023-04-04T02:51:43.943Z,27.82
2023-04-04T02:52:15.380Z,27.76
2023-04-04T02:52:46.872Z,27.81
2023-04-04T02:53:18.282Z,27.77
2023-04-04T02:53:49.782Z,27.83
2023-04-04T02:54:21.193Z,27.81
2023-04-04T02:54:54.218Z,27.78
2023-04-04T02:55:25.691Z,27.91
2023-04-04T02:55:57.216Z,27.76
2023-04-04T02:56:28.639Z,27.93
2023-04-04T02:57:00.121Z,27.90
2023-04-04T02:57:31.532Z,27.82
2023-04-04T02:58:03.048Z,27.95
2023-04-04T02:58:34.477Z,27.67
2023-04-04T02:59:05.979Z,27.74
2023-04-04T02:59:37.482Z,27.87
2023-04-04T03:00:08.948Z,27.88
2023-04-04T03:00:40.752Z,27.74
2023-04-04T03:01:12.497Z,27.92
2023-04-04T03:01:43.932Z,27.90
2023-04-04T03:02:15.552Z,27.91
2023-04-04T03:02:47.128Z,27.82
2023-04-04T03:03:18.733Z,27.85
2023-04-04T03:03:50.657Z,27.91
2023-04-04T03:04:22.236Z,27.93
2023-04-04T03:04:53.773Z,27.69
2023-04-04T03:05:25.231Z,28.02
2023-04-04T03:05:56.714Z,27.93
2023-04-04T03:06:31.001Z,27.88
2023-04-04T03:07:05.255Z,27.99
2023-04-04T03:07:36.741Z,27.97
2023-04-04T03:08:08.139Z,27.74
2023-04-04T03:08:39.628Z,27.75
2023-04-04T03:09:11.020Z,27.96
2023-04-04T03:09:42.587Z,27.90
2023-04-04T03:10:16.887Z,27.84
2023-04-04T03:10:48.292Z,27.83
2023-04-04T03:11:22.270Z,27.75
2023-04-04T03:11:53.743Z,27.93
2023-04-04T03:12:25.149Z,27.77
2023-04-04T03:12:56.641Z,27.89
2023-04-04T03:13:28.124Z,28.07
2023-04-04T03:13:59.541Z,27.73
2023-04-04T03:14:31.029Z,27.94
2023-04-04T03:15:05.632Z,27.89
2023-04-04T03:15:37.143Z,27.87
2023-04-04T03:16:08.655Z,27.85
2023-04-04T03:16:40.233Z,27.87
2023-04-04T03:17:11.699Z,27.93
2023-04-04T03:17:45.690Z,27.79
2023-04-04T03:18:17.133Z,27.88
2023-04-04T03:18:48.545Z,27.84
2023-04-04T03:19:19.980Z,27.81
2023-04-04T03:19:51.457Z,27.92
2023-04-04T03:20:22.944Z,27.79
2023-04-04T03:20:54.431Z,27.82
2023-04-04T03:21:25.899Z,27.68
2023-04-04T03:22:00.110Z,27.93
2023-04-04T03:22:31.647Z,27.90
2023-04-04T03:23:03.154Z,27.90
2023-04-04T03:23:34.627Z,27.78
2023-04-04T03:24:06.132Z,27.95
2023-04-04T03:24:38.614Z,27.91
2023-04-04T03:25:13.594Z,27.85
2023-04-04T03:25:45.108Z,27.99
2023-04-04T03:26:16.567Z,27.77
2023-04-04T03:26:47.962Z,27.81
2023-04-04T03:27:19.439Z,27.84
2023-04-04T03:27:50.881Z,27.74
2023-04-04T03:28:22.312Z,27.98
2023-04-04T03:28:53.724Z,27.82
2023-04-04T03:29:25.195Z,27.81
2023-04-04T03:29:56.648Z,27.85
2023-04-04T03:30:28.118Z,27.85
2023-04-04T03:30:59.665Z,27.79
2023-04-04T03:31:31.116Z,27.96
2023-04-04T03:32:02.654Z,27.88
2023-04-04T03:32:34.136Z,27.95
2023-04-04T03:33:05.650Z,27.85
2023-04-04T03:33:37.114Z,27.83
2023-04-04T03:34:11.224Z,27.90
2023-04-04T03:34:44.789Z,27.93
2023-04-04T03:35:16.311Z,27.94
2023-04-04T03:35:47.781Z,27.82
2023-04-04T03:36:20.371Z,27.88
2023-04-04T03:36:51.827Z,27.75
2023-04-04T03:37:23.488Z,27.79
2023-04-04T03:37:58.025Z,27.79
2023-04-04T03:38:29.519Z,27.81
2023-04-04T03:39:00.978Z,27.78
2023-04-04T03:39:32.489Z,27.71
2023-04-04T03:40:06.634Z,27.82
2023-04-04T03:40:40.733Z,27.80
2023-04-04T03:41:12.356Z,27.78
2023-04-04T03:41:43.860Z,27.71
2023-04-04T03:42:15.297Z,27.74
2023-04-04T03:42:46.774Z,27.84
2023-04-04T03:43:18.181Z,27.76
2023-04-04T03:43:49.641Z,27.80
2023-04-04T03:44:21.118Z,27.84
2023-04-04T03:44:52.627Z,27.76
2023-04-04T03:45:24.064Z,27.70
2023-04-04T03:45:55.624Z,27.79
2023-04-04T03:46:27.185Z,27.70
2023-04-04T03:46:58.782Z,27.75
2023-04-04T03:47:33.016Z,27.92
2023-04-04T03:48:04.479Z,27.78
2023-04-04T03:48:36.009Z,27.84
2023-04-04T03:49:07.721Z,27.74
2023-04-04T03:49:40.349Z,27.90
2023-04-04T03:50:11.891Z,27.76
2023-04-04T03:50:43.378Z,27.86
2023-04-04T03:51:14.871Z,27.70
2023-04-04T03:51:46.331Z,27.83
2023-04-04T03:52:17.812Z,27.97
2023-04-04T03:52:49.242Z,27.87
2023-04-04T03:53:20.700Z,27.89
2023-04-04T03:53:52.159Z,27.82
2023-04-04T03:54:23.706Z,27.96
2023-04-04T03:54:55.133Z,27.99
2023-04-04T03:55:26.638Z,27.84
2023-04-04T03:55:58.053Z,27.83
2023-04-04T03:56:29.511Z,27.94
2023-04-04T03:57:03.483Z,27.82
2023-04-04T03:57:34.980Z,27.85
2023-04-04T03:58:06.451Z,28.02
2023-04-04T03:58:37.869Z,27.76
2023-04-04T03:59:09.373Z,27.78
2023-04-04T03:59:40.741Z,27.82
2023-04-04T04:00:12.241Z,27.99
2023-04-04T04:00:43.654Z,27.76
2023-04-04T04:01:15.141Z,27.82
2023-04-04T04:01:48.733Z,27.69
2023-04-04T04:02:20.189Z,27.76
2023-04-04T04:02:54.524Z,27.64
2023-04-04T04:03:26.160Z,27.74
2023-04-04T04:03:57.899Z,27.75
2023-04-04T04:04:29.365Z,27.67
2023-04-04T04:05:03.924Z,27.74
2023-04-04T04:05:38.284Z,27.62
2023-04-04T04:06:09.759Z,27.69
2023-04-04T04:06:41.196Z,27.64
2023-04-04T04:07:12.705Z,27.63
2023-04-04T04:07:44.212Z,27.82
2023-04-04T04:08:15.834Z,27.76
2023-04-04T04:08:47.395Z,27.77
2023-04-04T04:09:18.857Z,27.73
2023-04-04T04:09:50.294Z,27.72
2023-04-04T04:10:21.680Z,27.60
2023-04-04T04:10:53.119Z,27.71
2023-04-04T04:11:24.608Z,27.80
2023-04-04T04:11:56.051Z,27.70
2023-04-04T04:12:27.536Z,27.67
2023-04-04T04:12:58.967Z,27.74
2023-04-04T04:13:30.488Z,27.78
2023-04-04T04:14:01.956Z,27.62
2023-04-04T04:14:33.403Z,27.79
2023-04-04T04:15:04.869Z,27.73
2023-04-04T04:15:36.321Z,27.78
2023-04-04T04:16:07.850Z,27.66
2023-04-04T04:16:39.324Z,27.91
2023-04-04T04:17:10.799Z,27.81
2023-04-04T04:17:45.423Z,27.76
2023-04-04T04:18:16.850Z,27.88
2023-04-04T04:18:48.361Z,27.83
2023-04-04T04:19:19.804Z,28.00
2023-04-04T04:19:54.425Z,27.71
2023-04-04T04:20:28.635Z,27.78
2023-04-04T04:21:00.118Z,27.95
2023-04-04T04:21:31.615Z,27.94
2023-04-04T04:22:03.072Z,27.84
2023-04-04T04:22:34.572Z,27.92
2023-04-04T04:23:07.531Z,27.76
2023-04-04T04:23:38.930Z,27.76
2023-04-04T04:24:10.382Z,27.92
2023-04-04T04:24:41.810Z,27.87
2023-04-04T04:25:13.271Z,27.75
2023-04-04T04:25:47.510Z,27.72
2023-04-04T04:26:19.010Z,27.66
2023-04-04T04:26:50.549Z,27.81
2023-04-04T04:27:22.078Z,27.69
2023-04-04T04:27:53.687Z,27.80
2023-04-04T04:28:33.955Z,27.86
2023-04-04T04:29:05.768Z,27.76
2023-04-04T04:29:37.325Z,27.86
2023-04-04T04:30:08.758Z,27.77
2023-04-04T04:30:40.570Z,27.83
2023-04-04T04:31:12.331Z,27.93
2023-04-04T04:31:43.806Z,27.93
2023-04-04T04:32:16.661Z,27.78
2023-04-04T04:32:48.107Z,27.73
2023-04-04T04:33:19.602Z,27.71
2023-04-04T04:33:51.057Z,27.70
2023-04-04T04:34:22.471Z,27.70
2023-04-04T04:34:54.016Z,27.84
2023-04-04T04:35:25.455Z,27.73
2023-04-04T04:35:56.929Z,27.76
2023-04-04T04:36:28.433Z,27.82
2023-04-04T04:36:59.911Z,27.81
2023-04-04T04:37:31.459Z,27.75
2023-04-04T04:38:02.866Z,27.74
2023-04-04T04:38:34.323Z,27.82
2023-04-04T04:39:05.829Z,27.85
2023-04-04T04:39:37.311Z,27.83
2023-04-04T04:40:10.689Z,27.72
2023-04-04T04:40:42.399Z,27.74
2023-04-04T04:41:15.128Z,27.66
2023-04-04T04:41:49.579Z,27.59
2023-04-04T04:42:20.972Z,27.76
2023-04-04T04:42:53.284Z,27.79
2023-04-04T04:43:24.900Z,27.69
2023-04-04T04:43:56.321Z,27.69
2023-04-04T04:44:27.748Z,27.88
2023-04-04T04:44:59.336Z,27.79
2023-04-04T04:45:36.701Z,27.73
2023-04-04T04:46:08.150Z,27.67
2023-04-04T04:46:44.396Z,27.72
2023-04-04T04:47:18.856Z,27.83
2023-04-04T04:47:50.400Z,27.74
2023-04-04T04:48:21.888Z,27.77
2023-04-04T04:48:53.363Z,27.70
2023-04-04T04:49:24.967Z,27.75
2023-04-04T04:49:56.484Z,27.69
2023-04-04T04:50:27.955Z,27.80
2023-04-04T04:50:59.412Z,27.77
2023-04-04T04:51:32.846Z,27.71
2023-04-04T04:52:04.353Z,27.75
2023-04-04T04:52:35.861Z,27.79
2023-04-04T04:53:07.285Z,27.81
2023-04-04T04:53:40.455Z,27.69
2023-04-04T04:54:11.883Z,27.74
2023-04-04T04:54:43.387Z,27.82
2023-04-04T04:55:14.844Z,27.74
2023-04-04T04:55:46.301Z,27.74
2023-04-04T04:56:17.794Z,27.57
2023-04-04T04:56:49.195Z,27.79
2023-04-04T04:57:20.650Z,27.65
2023-04-04T04:57:52.078Z,27.86
2023-04-04T04:58:23.667Z,27.77
2023-04-04T04:58:55.120Z,27.87
2023-04-04T04:59:26.721Z,27.76
2023-04-04T04:59:58.179Z,27.76
2023-04-04T05:00:32.712Z,27.87
2023-04-04T05:01:04.211Z,27.73
2023-04-04T05:01:35.809Z,27.75
2023-04-04T05:02:07.282Z,27.78
2023-04-04T05:02:38.898Z,27.82
2023-04-04T05:03:10.453Z,27.73
2023-04-04T05:03:41.961Z,27.66
2023-04-04T05:04:13.382Z,27.69
2023-04-04T05:04:44.883Z,27.72
2023-04-04T05:05:16.286Z,27.62
2023-04-04T05:05:47.767Z,27.56
2023-04-04T05:06:19.162Z,27.73
2023-04-04T05:06:50.679Z,27.76
2023-04-04T05:07:22.208Z,27.86
2023-04-04T05:08:03.024Z,27.71
2023-04-04T05:08:36.608Z,27.74
2023-04-04T05:09:08.033Z,27.83
2023-04-04T05:09:39.461Z,27.87
2023-04-04T05:10:10.881Z,27.71
2023-04-04T05:10:42.690Z,27.82
2023-04-04T05:11:14.243Z,27.83
2023-04-04T05:11:45.691Z,27.81
2023-04-04T05:12:17.216Z,27.77
2023-04-04T05:12:48.656Z,27.79
2023-04-04T05:13:20.147Z,27.57
2023-04-04T05:13:53.438Z,27.76
2023-04-04T05:14:24.943Z,27.83
2023-04-04T05:14:56.354Z,27.82
2023-04-04T05:15:27.797Z,27.83
2023-04-04T05:15:59.226Z,27.94
2023-04-04T05:16:30.639Z,27.80
2023-04-04T05:17:02.093Z,27.89
2023-04-04T05:17:33.632Z,27.79
2023-04-04T05:18:05.155Z,27.75
2023-04-04T05:18:36.634Z,27.70
2023-04-04T05:19:08.058Z,27.73
2023-04-04T05:19:39.574Z,27.66
2023-04-04T05:20:13.502Z,27.70
2023-04-04T05:20:44.947Z,27.69
2023-04-04T05:21:16.409Z,27.67
2023-04-04T05:21:47.906Z,27.71
2023-04-04T05:22:19.417Z,27.88
2023-04-04T05:22:51.657Z,27.58
2023-04-04T05:23:23.212Z,27.76
2023-04-04T05:23:54.797Z,27.76
2023-04-04T05:24:26.249Z,27.83
2023-04-04T05:24:57.743Z,27.96
2023-04-04T05:25:29.183Z,27.67
2023-04-04T05:26:00.662Z,27.77
2023-04-04T05:26:32.158Z,27.82
2023-04-04T05:27:03.596Z,27.76
2023-04-04T05:27:35.121Z,27.91
2023-04-04T05:28:06.627Z,27.90
2023-04-04T05:28:38.141Z,27.71
2023-04-04T05:29:09.600Z,27.81
2023-04-04T05:29:41.078Z,27.84
2023-04-04T05:30:12.709Z,27.77
2023-04-04T05:30:44.179Z,27.69
2023-04-04T05:31:15.569Z,27.79
2023-04-04T05:31:48.918Z,27.65
2023-04-04T05:32:20.488Z,27.73
2023-04-04T05:32:51.917Z,27.71
2023-04-04T05:33:23.743Z,27.70
2023-04-04T05:33:55.188Z,27.78
2023-04-04T05:34:26.744Z,27.78
2023-04-04T05:34:58.248Z,27.75
2023-04-04T05:35:29.672Z,27.68
2023-04-04T05:36:01.363Z,27.71
2023-04-04T05:36:32.972Z,27.58
2023-04-04T05:37:04.575Z,27.59
2023-04-04T05:37:36.020Z,27.62
2023-04-04T05:38:07.523Z,27.73
2023-04-04T05:38:39.619Z,27.57
2023-04-04T05:39:13.669Z,27.62
2023-04-04T05:39:45.061Z,27.65
2023-04-04T05:40:16.516Z,27.56
2023-04-04T05:40:52.146Z,27.73
2023-04-04T05:41:23.737Z,27.74
2023-04-04T05:41:55.174Z,27.60
2023-04-04T05:42:26.758Z,27.53
2023-04-04T05:42:58.198Z,27.61
2023-04-04T05:43:29.633Z,27.56
2023-04-04T05:44:01.186Z,27.62
2023-04-04T05:44:32.676Z,27.64
2023-04-04T05:45:07.027Z,27.86
2023-04-04T05:45:40.507Z,27.67
2023-04-04T05:46:12.846Z,27.60
2023-04-04T05:46:44.339Z,27.75
2023-04-04T05:47:15.755Z,27.69
2023-04-04T05:47:47.210Z,27.71
2023-04-04T05:48:20.464Z,27.62
2023-04-04T05:48:51.941Z,27.67
2023-04-04T05:49:23.635Z,27.52
2023-04-04T05:49:55.108Z,27.74
2023-04-04T05:50:28.095Z,27.63
2023-04-04T05:51:02.664Z,27.76
2023-04-04T05:51:34.148Z,27.69
2023-04-04T05:52:05.573Z,27.50
2023-04-04T05:52:37.022Z,27.65
2023-04-04T05:53:08.467Z,27.78
2023-04-04T05:53:40.998Z,27.62
2023-04-04T05:54:12.692Z,27.58
2023-04-04T05:54:44.262Z,27.59
2023-04-04T05:55:15.691Z,27.71
2023-04-04T05:55:47.085Z,27.76
2023-04-04T05:56:18.580Z,27.44
2023-04-04T05:56:52.038Z,27.60
2023-04-04T05:57:24.225Z,27.69
2023-04-04T05:57:58.769Z,27.56
2023-04-04T05:58:30.160Z,27.71
2023-04-04T05:59:01.615Z,27.32
2023-04-04T05:59:33.125Z,27.63
2023-04-04T06:00:07.375Z,27.66
2023-04-04T06:00:41.784Z,27.47
2023-04-04T06:01:16.293Z,27.54
2023-04-04T06:01:47.823Z,27.64
2023-04-04T06:02:21.435Z,27.53
2023-04-04T06:02:53.162Z,27.51
2023-04-04T06:03:24.717Z,27.59
2023-04-04T06:03:58.056Z,27.50
2023-04-04T06:04:29.472Z,27.49
2023-04-04T06:05:00.938Z,27.53
2023-04-04T06:05:32.430Z,27.57
2023-04-04T06:06:04.060Z,27.70
2023-04-04T06:06:38.507Z,27.71
2023-04-04T06:07:12.797Z,27.54
2023-04-04T06:07:44.280Z,27.57
2023-04-04T06:08:15.689Z,27.50
2023-04-04T06:08:53.473Z,27.63
2023-04-04T06:09:28.102Z,27.58
2023-04-04T06:09:59.549Z,27.47
2023-04-04T06:10:31.055Z,27.58
2023-04-04T06:11:02.501Z,27.54
2023-04-04T06:11:34.042Z,27.66
2023-04-04T06:12:05.544Z,27.68
2023-04-04T06:12:36.951Z,27.76
2023-04-04T06:13:08.409Z,27.67
2023-04-04T06:13:39.864Z,27.50
2023-04-04T06:14:13.210Z,27.69
2023-04-04T06:14:47.682Z,27.63
2023-04-04T06:15:19.095Z,27.73
2023-04-04T06:15:50.559Z,27.68
2023-04-04T06:16:22.061Z,27.55
2023-04-04T06:16:56.512Z,27.61
2023-04-04T06:17:31.027Z,27.56
2023-04-04T06:18:02.491Z,27.69
2023-04-04T06:18:33.968Z,27.56
2023-04-04T06:19:05.442Z,27.67
2023-04-04T06:19:36.852Z,27.62
2023-04-04T06:20:08.298Z,27.80
2023-04-04T06:20:39.965Z,27.62
2023-04-04T06:21:11.568Z,27.43
2023-04-04T06:21:43.019Z,27.51
2023-04-04T06:22:17.517Z,27.61
2023-04-04T06:22:49.016Z,27.57
2023-04-04T06:23:20.455Z,27.65
2023-04-04T06:23:51.892Z,27.60
2023-04-04T06:24:23.452Z,27.58
2023-04-04T06:24:54.927Z,27.71
2023-04-04T06:25:26.362Z,27.57
2023-04-04T06:25:59.563Z,27.52
2023-04-04T06:26:31.029Z,27.60
2023-04-04T06:27:02.473Z,27.56
2023-04-04T06:27:34.016Z,27.56
2023-04-04T06:28:05.462Z,27.55
2023-04-04T06:28:36.964Z,27.54
2023-04-04T06:29:08.452Z,27.55
2023-04-04T06:29:39.981Z,27.63
2023-04-04T06:30:12.115Z,27.58
2023-04-04T06:30:43.674Z,27.39
2023-04-04T06:31:15.147Z,27.50
2023-04-04T06:31:46.656Z,27.46
2023-04-04T06:32:21.333Z,27.59
2023-04-04T06:32:52.927Z,27.39
2023-04-04T06:33:24.398Z,27.48
2023-04-04T06:33:57.920Z,27.49
2023-04-04T06:34:29.394Z,27.49
2023-04-04T06:35:00.835Z,27.35
2023-04-04T06:35:32.282Z,27.60
2023-04-04T06:36:03.718Z,27.53
2023-04-04T06:36:35.167Z,27.50
2023-04-04T06:37:06.659Z,27.52
2023-04-04T06:37:38.084Z,27.58
2023-04-04T06:38:09.618Z,27.34
2023-04-04T06:38:43.794Z,27.37
2023-04-04T06:39:15.280Z,27.44
2023-04-04T06:39:46.720Z,27.45
2023-04-04T06:40:18.155Z,27.66
2023-04-04T06:40:49.612Z,27.56
2023-04-04T06:41:21.027Z,27.62
2023-04-04T06:41:52.440Z,27.52
2023-04-04T06:42:23.986Z,27.50
2023-04-04T06:42:55.426Z,27.58
2023-04-04T06:43:27.363Z,27.50
2023-04-04T06:43:58.850Z,27.38
2023-04-04T06:44:30.339Z,27.48
2023-04-04T06:45:04.049Z,27.50
2023-04-04T06:45:35.459Z,27.74
2023-04-04T06:46:06.880Z,27.43
2023-04-04T06:46:38.307Z,27.50
2023-04-04T06:47:09.762Z,27.54
2023-04-04T06:47:41.274Z,27.54
2023-04-04T06:48:15.600Z,27.56
2023-04-04T06:48:47.102Z,27.49
2023-04-04T06:49:18.581Z,27.68
2023-04-04T06:49:50.105Z,27.57
2023-04-04T06:50:21.505Z,27.55